sensor_id;sensor_type;location;lat;lon;timestamp;P1;durP1;ratioP1;P2;durP2;ratioP2
56391;SDS011;76123;53.584;9.978;2024-01-30T00:00:14;14.27;;;7.22;;
56391;SDS011;76123;53.584;9.978;2024-01-30T00:02:41;12.68;;;7.32;;
56391;SDS011;76123;53.584;9.978;2024-01-30T00:05:08;11.50;;;6.82;;
56391;SDS011;76123;53.584;9.978;2024-01-30T00:07:36;14.77;;;7.13;;
56391;SDS011;76123;53.584;9.978;2024-01-30T00:10:03;14.05;;;6.68;;
56391;SDS011;76123;53.584;9.978;2024-01-30T00:12:31;11.30;;;6.28;;
56391;SDS011;76123;53.584;9.978;2024-01-30T00:14:57;14.05;;;7.28;;
56391;SDS011;76123;53.584;9.978;2024-01-30T00:17:24;13.60;;;7.68;;
56391;SDS011;76123;53.584;9.978;2024-01-30T00:19:51;14.52;;;7.13;;
56391;SDS011;76123;53.584;9.978;2024-01-30T00:22:18;14.48;;;7.15;;
56391;SDS011;76123;53.584;9.978;2024-01-30T00:24:46;12.77;;;7.30;;
56391;SDS011;76123;53.584;9.978;2024-01-30T00:27:12;14.38;;;7.15;;
56391;SDS011;76123;53.584;9.978;2024-01-30T00:29:39;12.95;;;7.18;;
56391;SDS011;76123;53.584;9.978;2024-01-30T00:32:06;13.02;;;6.70;;
56391;SDS011;76123;53.584;9.978;2024-01-30T00:34:32;11.98;;;7.03;;
56391;SDS011;76123;53.584;9.978;2024-01-30T00:36:59;10.38;;;6.45;;
56391;SDS011;76123;53.584;9.978;2024-01-30T00:39:26;11.63;;;6.43;;
56391;SDS011;76123;53.584;9.978;2024-01-30T00:41:54;11.80;;;6.72;;
56391;SDS011;76123;53.584;9.978;2024-01-30T00:44:21;13.50;;;7.05;;
56391;SDS011;76123;53.584;9.978;2024-01-30T00:46:47;10.18;;;6.07;;
56391;SDS011;76123;53.584;9.978;2024-01-30T00:49:14;11.48;;;6.72;;
56391;SDS011;76123;53.584;9.978;2024-01-30T00:51:40;12.75;;;6.38;;
56391;SDS011;76123;53.584;9.978;2024-01-30T00:54:07;13.88;;;6.78;;
56391;SDS011;76123;53.584;9.978;2024-01-30T00:56:34;12.00;;;6.82;;
56391;SDS011;76123;53.584;9.978;2024-01-30T00:59:02;12.77;;;6.43;;
56391;SDS011;76123;53.584;9.978;2024-01-30T01:01:28;13.18;;;7.10;;
56391;SDS011;76123;53.584;9.978;2024-01-30T01:03:55;10.85;;;6.45;;
56391;SDS011;76123;53.584;9.978;2024-01-30T01:06:23;11.30;;;6.65;;
56391;SDS011;76123;53.584;9.978;2024-01-30T01:08:49;11.23;;;6.72;;
56391;SDS011;76123;53.584;9.978;2024-01-30T01:11:16;10.90;;;6.25;;
56391;SDS011;76123;53.584;9.978;2024-01-30T01:13:42;11.63;;;6.80;;
56391;SDS011;76123;53.584;9.978;2024-01-30T01:16:10;11.25;;;6.22;;
56391;SDS011;76123;53.584;9.978;2024-01-30T01:18:37;11.65;;;6.47;;
56391;SDS011;76123;53.584;9.978;2024-01-30T01:21:04;10.45;;;6.68;;
56391;SDS011;76123;53.584;9.978;2024-01-30T01:23:31;14.65;;;7.30;;
56391;SDS011;76123;53.584;9.978;2024-01-30T01:25:57;13.98;;;7.10;;
56391;SDS011;76123;53.584;9.978;2024-01-30T01:28:24;11.60;;;6.30;;
56391;SDS011;76123;53.584;9.978;2024-01-30T01:30:52;10.93;;;6.13;;
56391;SDS011;76123;53.584;9.978;2024-01-30T01:33:20;12.38;;;6.70;;
56391;SDS011;76123;53.584;9.978;2024-01-30T01:35:46;11.52;;;6.63;;
56391;SDS011;76123;53.584;9.978;2024-01-30T01:38:13;10.30;;;6.25;;
56391;SDS011;76123;53.584;9.978;2024-01-30T01:40:39;10.80;;;6.13;;
56391;SDS011;76123;53.584;9.978;2024-01-30T01:43:06;11.13;;;6.57;;
56391;SDS011;76123;53.584;9.978;2024-01-30T01:45:33;11.38;;;6.63;;
56391;SDS011;76123;53.584;9.978;2024-01-30T01:47:59;11.07;;;6.45;;
56391;SDS011;76123;53.584;9.978;2024-01-30T01:50:27;10.93;;;6.57;;
56391;SDS011;76123;53.584;9.978;2024-01-30T01:52:54;11.50;;;6.53;;
56391;SDS011;76123;53.584;9.978;2024-01-30T01:55:21;11.15;;;6.93;;
56391;SDS011;76123;53.584;9.978;2024-01-30T01:57:50;11.90;;;6.22;;
56391;SDS011;76123;53.584;9.978;2024-01-30T02:00:18;13.93;;;6.88;;
56391;SDS011;76123;53.584;9.978;2024-01-30T02:02:46;11.20;;;6.28;;
56391;SDS011;76123;53.584;9.978;2024-01-30T02:05:13;10.65;;;6.82;;
56391;SDS011;76123;53.584;9.978;2024-01-30T02:07:42;9.70;;;5.95;;
56391;SDS011;76123;53.584;9.978;2024-01-30T02:10:08;9.63;;;5.57;;
56391;SDS011;76123;53.584;9.978;2024-01-30T02:12:35;12.38;;;6.38;;
56391;SDS011;76123;53.584;9.978;2024-01-30T02:15:02;11.18;;;6.57;;
56391;SDS011;76123;53.584;9.978;2024-01-30T02:17:30;10.25;;;6.10;;
56391;SDS011;76123;53.584;9.978;2024-01-30T02:19:56;12.07;;;6.20;;
56391;SDS011;76123;53.584;9.978;2024-01-30T02:22:24;9.57;;;5.63;;
56391;SDS011;76123;53.584;9.978;2024-01-30T02:24:51;12.77;;;6.80;;
56391;SDS011;76123;53.584;9.978;2024-01-30T02:27:18;14.63;;;6.40;;
56391;SDS011;76123;53.584;9.978;2024-01-30T02:29:44;12.38;;;6.03;;
56391;SDS011;76123;53.584;9.978;2024-01-30T02:32:11;12.45;;;6.40;;
56391;SDS011;76123;53.584;9.978;2024-01-30T02:34:37;12.50;;;6.70;;
56391;SDS011;76123;53.584;9.978;2024-01-30T02:37:04;11.02;;;6.28;;
56391;SDS011;76123;53.584;9.978;2024-01-30T02:39:32;10.15;;;5.60;;
56391;SDS011;76123;53.584;9.978;2024-01-30T02:41:58;11.77;;;6.30;;
56391;SDS011;76123;53.584;9.978;2024-01-30T02:44:25;10.60;;;5.82;;
56391;SDS011;76123;53.584;9.978;2024-01-30T02:46:51;12.32;;;6.18;;
56391;SDS011;76123;53.584;9.978;2024-01-30T02:49:19;13.38;;;6.40;;
56391;SDS011;76123;53.584;9.978;2024-01-30T02:51:45;15.63;;;6.15;;
56391;SDS011;76123;53.584;9.978;2024-01-30T02:54:12;10.50;;;6.18;;
56391;SDS011;76123;53.584;9.978;2024-01-30T02:56:40;9.95;;;5.55;;
56391;SDS011;76123;53.584;9.978;2024-01-30T02:59:07;12.30;;;6.43;;
56391;SDS011;76123;53.584;9.978;2024-01-30T03:01:33;13.60;;;6.70;;
56391;SDS011;76123;53.584;9.978;2024-01-30T03:04:08;11.75;;;6.30;;
56391;SDS011;76123;53.584;9.978;2024-01-30T03:06:34;12.55;;;6.70;;
56391;SDS011;76123;53.584;9.978;2024-01-30T03:09:01;10.77;;;5.97;;
56391;SDS011;76123;53.584;9.978;2024-01-30T03:11:28;13.48;;;6.70;;
56391;SDS011;76123;53.584;9.978;2024-01-30T03:13:56;13.50;;;6.60;;
56391;SDS011;76123;53.584;9.978;2024-01-30T03:16:22;14.38;;;6.50;;
56391;SDS011;76123;53.584;9.978;2024-01-30T03:18:49;11.40;;;5.65;;
56391;SDS011;76123;53.584;9.978;2024-01-30T03:21:15;10.73;;;6.03;;
56391;SDS011;76123;53.584;9.978;2024-01-30T03:23:42;13.82;;;6.25;;
56391;SDS011;76123;53.584;9.978;2024-01-30T03:26:08;10.93;;;6.22;;
56391;SDS011;76123;53.584;9.978;2024-01-30T03:28:36;13.48;;;6.88;;
56391;SDS011;76123;53.584;9.978;2024-01-30T03:31:04;12.68;;;6.20;;
56391;SDS011;76123;53.584;9.978;2024-01-30T03:33:30;10.80;;;6.30;;
56391;SDS011;76123;53.584;9.978;2024-01-30T03:35:57;10.40;;;6.13;;
56391;SDS011;76123;53.584;9.978;2024-01-30T03:38:28;11.15;;;6.20;;
56391;SDS011;76123;53.584;9.978;2024-01-30T03:40:55;10.48;;;5.97;;
56391;SDS011;76123;53.584;9.978;2024-01-30T03:43:22;11.35;;;6.18;;
56391;SDS011;76123;53.584;9.978;2024-01-30T03:45:48;12.80;;;6.50;;
56391;SDS011;76123;53.584;9.978;2024-01-30T03:48:16;11.98;;;7.05;;
56391;SDS011;76123;53.584;9.978;2024-01-30T03:50:43;12.82;;;7.10;;
56391;SDS011;76123;53.584;9.978;2024-01-30T03:53:10;14.02;;;6.95;;
56391;SDS011;76123;53.584;9.978;2024-01-30T03:55:36;12.35;;;6.97;;
56391;SDS011;76123;53.584;9.978;2024-01-30T03:58:03;11.55;;;7.00;;
56391;SDS011;76123;53.584;9.978;2024-01-30T04:00:30;13.25;;;7.72;;
56391;SDS011;76123;53.584;9.978;2024-01-30T04:02:56;12.50;;;6.90;;
56391;SDS011;76123;53.584;9.978;2024-01-30T04:05:24;13.90;;;7.10;;
56391;SDS011;76123;53.584;9.978;2024-01-30T04:07:51;10.73;;;6.88;;
56391;SDS011;76123;53.584;9.978;2024-01-30T04:10:17;11.20;;;6.57;;
56391;SDS011;76123;53.584;9.978;2024-01-30T04:12:44;13.95;;;7.70;;
56391;SDS011;76123;53.584;9.978;2024-01-30T04:15:11;12.60;;;7.28;;
56391;SDS011;76123;53.584;9.978;2024-01-30T04:17:38;10.13;;;6.70;;
56391;SDS011;76123;53.584;9.978;2024-01-30T04:20:05;12.15;;;6.40;;
56391;SDS011;76123;53.584;9.978;2024-01-30T04:22:33;14.18;;;7.22;;
56391;SDS011;76123;53.584;9.978;2024-01-30T04:25:00;11.43;;;6.60;;
56391;SDS011;76123;53.584;9.978;2024-01-30T04:27:28;12.68;;;6.97;;
56391;SDS011;76123;53.584;9.978;2024-01-30T04:29:54;12.07;;;6.57;;
56391;SDS011;76123;53.584;9.978;2024-01-30T04:32:21;12.98;;;7.25;;
56391;SDS011;76123;53.584;9.978;2024-01-30T04:34:47;13.95;;;7.75;;
56391;SDS011;76123;53.584;9.978;2024-01-30T04:37:14;12.57;;;7.40;;
56391;SDS011;76123;53.584;9.978;2024-01-30T04:39:42;15.43;;;7.22;;
56391;SDS011;76123;53.584;9.978;2024-01-30T04:42:09;14.07;;;6.93;;
56391;SDS011;76123;53.584;9.978;2024-01-30T04:44:35;11.75;;;7.28;;
56391;SDS011;76123;53.584;9.978;2024-01-30T04:47:02;14.05;;;7.55;;
56391;SDS011;76123;53.584;9.978;2024-01-30T04:49:30;13.75;;;7.80;;
56391;SDS011;76123;53.584;9.978;2024-01-30T04:51:56;14.48;;;7.93;;
56391;SDS011;76123;53.584;9.978;2024-01-30T04:54:23;13.80;;;7.28;;
56391;SDS011;76123;53.584;9.978;2024-01-30T04:56:52;13.20;;;7.28;;
56391;SDS011;76123;53.584;9.978;2024-01-30T04:59:18;13.48;;;7.65;;
56391;SDS011;76123;53.584;9.978;2024-01-30T05:01:45;12.60;;;7.18;;
56391;SDS011;76123;53.584;9.978;2024-01-30T05:04:12;13.07;;;7.53;;
56391;SDS011;76123;53.584;9.978;2024-01-30T05:06:39;13.82;;;7.85;;
56391;SDS011;76123;53.584;9.978;2024-01-30T05:09:05;13.50;;;8.00;;
56391;SDS011;76123;53.584;9.978;2024-01-30T05:11:36;15.20;;;7.70;;
56391;SDS011;76123;53.584;9.978;2024-01-30T05:14:04;16.15;;;8.00;;
56391;SDS011;76123;53.584;9.978;2024-01-30T05:16:31;15.07;;;7.90;;
56391;SDS011;76123;53.584;9.978;2024-01-30T05:18:58;14.35;;;8.20;;
56391;SDS011;76123;53.584;9.978;2024-01-30T05:21:24;12.90;;;7.80;;
56391;SDS011;76123;53.584;9.978;2024-01-30T05:23:51;13.98;;;8.10;;
56391;SDS011;76123;53.584;9.978;2024-01-30T05:26:17;13.68;;;7.68;;
56391;SDS011;76123;53.584;9.978;2024-01-30T05:28:44;12.65;;;7.40;;
56391;SDS011;76123;53.584;9.978;2024-01-30T05:31:12;14.88;;;8.60;;
56391;SDS011;76123;53.584;9.978;2024-01-30T05:33:38;14.75;;;7.88;;
56391;SDS011;76123;53.584;9.978;2024-01-30T05:36:06;12.40;;;7.63;;
56391;SDS011;76123;53.584;9.978;2024-01-30T05:38:33;17.50;;;8.05;;
56391;SDS011;76123;53.584;9.978;2024-01-30T05:41:01;13.48;;;6.85;;
56391;SDS011;76123;53.584;9.978;2024-01-30T05:43:28;16.35;;;7.68;;
56391;SDS011;76123;53.584;9.978;2024-01-30T05:45:55;14.43;;;7.78;;
56391;SDS011;76123;53.584;9.978;2024-01-30T05:48:23;13.68;;;7.88;;
56391;SDS011;76123;53.584;9.978;2024-01-30T05:50:49;14.98;;;7.82;;
56391;SDS011;76123;53.584;9.978;2024-01-30T05:53:16;13.88;;;8.40;;
56391;SDS011;76123;53.584;9.978;2024-01-30T05:55:42;14.25;;;7.82;;
56391;SDS011;76123;53.584;9.978;2024-01-30T05:58:09;14.48;;;8.48;;
56391;SDS011;76123;53.584;9.978;2024-01-30T06:00:36;16.58;;;8.30;;
56391;SDS011;76123;53.584;9.978;2024-01-30T06:03:03;17.42;;;8.70;;
56391;SDS011;76123;53.584;9.978;2024-01-30T06:05:31;16.75;;;9.02;;
56391;SDS011;76123;53.584;9.978;2024-01-30T06:07:57;14.95;;;8.68;;
56391;SDS011;76123;53.584;9.978;2024-01-30T06:10:24;17.13;;;7.88;;
56391;SDS011;76123;53.584;9.978;2024-01-30T06:12:51;17.00;;;8.63;;
56391;SDS011;76123;53.584;9.978;2024-01-30T06:15:17;13.10;;;8.00;;
56391;SDS011;76123;53.584;9.978;2024-01-30T06:17:44;16.08;;;9.13;;
56391;SDS011;76123;53.584;9.978;2024-01-30T06:20:10;16.48;;;8.43;;
56391;SDS011;76123;53.584;9.978;2024-01-30T06:22:38;15.52;;;8.88;;
56391;SDS011;76123;53.584;9.978;2024-01-30T06:25:05;15.90;;;9.15;;
56391;SDS011;76123;53.584;9.978;2024-01-30T06:27:32;18.67;;;8.98;;
56391;SDS011;76123;53.584;9.978;2024-01-30T06:29:58;16.08;;;8.57;;
56391;SDS011;76123;53.584;9.978;2024-01-30T06:32:25;15.63;;;8.18;;
56391;SDS011;76123;53.584;9.978;2024-01-30T06:34:52;15.85;;;8.30;;
56391;SDS011;76123;53.584;9.978;2024-01-30T06:37:19;15.30;;;8.15;;
56391;SDS011;76123;53.584;9.978;2024-01-30T06:39:46;16.00;;;8.48;;
56391;SDS011;76123;53.584;9.978;2024-01-30T06:42:13;12.90;;;8.10;;
56391;SDS011;76123;53.584;9.978;2024-01-30T06:44:40;15.23;;;8.52;;
56391;SDS011;76123;53.584;9.978;2024-01-30T06:47:06;16.80;;;8.35;;
56391;SDS011;76123;53.584;9.978;2024-01-30T06:49:33;14.38;;;8.60;;
56391;SDS011;76123;53.584;9.978;2024-01-30T06:51:59;15.32;;;8.88;;
56391;SDS011;76123;53.584;9.978;2024-01-30T06:54:26;13.57;;;8.48;;
56391;SDS011;76123;53.584;9.978;2024-01-30T06:56:54;13.18;;;8.02;;
56391;SDS011;76123;53.584;9.978;2024-01-30T06:59:20;14.60;;;8.48;;
56391;SDS011;76123;53.584;9.978;2024-01-30T07:01:47;16.92;;;8.35;;
56391;SDS011;76123;53.584;9.978;2024-01-30T07:04:14;18.48;;;8.80;;
56391;SDS011;76123;53.584;9.978;2024-01-30T07:06:41;15.20;;;8.68;;
56391;SDS011;76123;53.584;9.978;2024-01-30T07:09:08;17.70;;;9.45;;
56391;SDS011;76123;53.584;9.978;2024-01-30T07:11:34;16.15;;;9.10;;
56391;SDS011;76123;53.584;9.978;2024-01-30T07:14:02;16.02;;;8.68;;
56391;SDS011;76123;53.584;9.978;2024-01-30T07:16:29;14.82;;;8.95;;
56391;SDS011;76123;53.584;9.978;2024-01-30T07:18:56;20.55;;;9.80;;
56391;SDS011;76123;53.584;9.978;2024-01-30T07:21:22;16.60;;;8.98;;
56391;SDS011;76123;53.584;9.978;2024-01-30T07:23:53;16.63;;;8.88;;
56391;SDS011;76123;53.584;9.978;2024-01-30T07:26:20;17.17;;;9.02;;
56391;SDS011;76123;53.584;9.978;2024-01-30T07:28:46;19.50;;;8.30;;
56391;SDS011;76123;53.584;9.978;2024-01-30T07:31:14;15.50;;;8.48;;
56391;SDS011;76123;53.584;9.978;2024-01-30T07:33:41;18.70;;;8.80;;
56391;SDS011;76123;53.584;9.978;2024-01-30T07:36:07;15.38;;;9.38;;
56391;SDS011;76123;53.584;9.978;2024-01-30T07:38:35;18.15;;;9.77;;
56391;SDS011;76123;53.584;9.978;2024-01-30T07:41:02;14.15;;;9.20;;
56391;SDS011;76123;53.584;9.978;2024-01-30T07:43:28;19.58;;;8.68;;
56391;SDS011;76123;53.584;9.978;2024-01-30T07:45:55;16.92;;;9.30;;
56391;SDS011;76123;53.584;9.978;2024-01-30T07:48:23;18.40;;;7.95;;
56391;SDS011;76123;53.584;9.978;2024-01-30T07:50:50;19.60;;;9.30;;
56391;SDS011;76123;53.584;9.978;2024-01-30T07:53:16;17.05;;;8.55;;
56391;SDS011;76123;53.584;9.978;2024-01-30T07:55:43;16.23;;;9.10;;
56391;SDS011;76123;53.584;9.978;2024-01-30T08:02:04;15.52;;;8.70;;
56391;SDS011;76123;53.584;9.978;2024-01-30T08:04:32;18.65;;;9.05;;
56391;SDS011;76123;53.584;9.978;2024-01-30T08:06:58;14.77;;;8.68;;
56391;SDS011;76123;53.584;9.978;2024-01-30T08:09:25;19.02;;;9.43;;
56391;SDS011;76123;53.584;9.978;2024-01-30T08:11:51;15.77;;;8.98;;
56391;SDS011;76123;53.584;9.978;2024-01-30T08:14:18;17.65;;;9.20;;
56391;SDS011;76123;53.584;9.978;2024-01-30T08:16:45;18.73;;;9.95;;
56391;SDS011;76123;53.584;9.978;2024-01-30T08:19:11;19.42;;;10.07;;
56391;SDS011;76123;53.584;9.978;2024-01-30T08:21:39;18.98;;;9.35;;
56391;SDS011;76123;53.584;9.978;2024-01-30T08:24:06;16.13;;;9.15;;
56391;SDS011;76123;53.584;9.978;2024-01-30T08:26:33;19.60;;;9.35;;
56391;SDS011;76123;53.584;9.978;2024-01-30T08:29:00;15.77;;;9.02;;
56391;SDS011;76123;53.584;9.978;2024-01-30T08:31:27;19.33;;;10.30;;
56391;SDS011;76123;53.584;9.978;2024-01-30T08:33:54;17.92;;;9.98;;
56391;SDS011;76123;53.584;9.978;2024-01-30T08:36:20;19.95;;;10.48;;
56391;SDS011;76123;53.584;9.978;2024-01-30T08:38:48;17.33;;;9.82;;
56391;SDS011;76123;53.584;9.978;2024-01-30T08:41:15;21.83;;;10.00;;
56391;SDS011;76123;53.584;9.978;2024-01-30T08:43:41;17.45;;;10.25;;
56391;SDS011;76123;53.584;9.978;2024-01-30T08:46:09;19.20;;;10.13;;
56391;SDS011;76123;53.584;9.978;2024-01-30T08:48:36;16.85;;;10.27;;
56391;SDS011;76123;53.584;9.978;2024-01-30T08:51:03;18.65;;;9.82;;
56391;SDS011;76123;53.584;9.978;2024-01-30T08:53:33;17.02;;;9.90;;
56391;SDS011;76123;53.584;9.978;2024-01-30T08:56:01;16.15;;;9.27;;
56391;SDS011;76123;53.584;9.978;2024-01-30T08:58:28;19.67;;;10.73;;
56391;SDS011;76123;53.584;9.978;2024-01-30T09:00:54;19.67;;;9.30;;
56391;SDS011;76123;53.584;9.978;2024-01-30T09:03:21;16.85;;;9.60;;
56391;SDS011;76123;53.584;9.978;2024-01-30T09:05:47;16.25;;;9.75;;
56391;SDS011;76123;53.584;9.978;2024-01-30T09:08:14;17.00;;;9.63;;
56391;SDS011;76123;53.584;9.978;2024-01-30T09:10:41;18.63;;;11.07;;
56391;SDS011;76123;53.584;9.978;2024-01-30T09:13:08;19.95;;;10.15;;
56391;SDS011;76123;53.584;9.978;2024-01-30T09:15:35;17.65;;;10.18;;
56391;SDS011;76123;53.584;9.978;2024-01-30T09:18:02;18.27;;;10.15;;
56391;SDS011;76123;53.584;9.978;2024-01-30T09:20:28;18.15;;;9.82;;
56391;SDS011;76123;53.584;9.978;2024-01-30T09:22:55;18.25;;;9.35;;
56391;SDS011;76123;53.584;9.978;2024-01-30T09:25:21;22.33;;;10.05;;
56391;SDS011;76123;53.584;9.978;2024-01-30T09:27:48;17.25;;;9.55;;
56391;SDS011;76123;53.584;9.978;2024-01-30T09:30:16;21.15;;;10.88;;
56391;SDS011;76123;53.584;9.978;2024-01-30T09:32:43;18.05;;;9.57;;
56391;SDS011;76123;53.584;9.978;2024-01-30T09:35:10;15.68;;;9.48;;
56391;SDS011;76123;53.584;9.978;2024-01-30T09:37:37;18.63;;;9.32;;
56391;SDS011;76123;53.584;9.978;2024-01-30T09:40:03;20.55;;;10.20;;
56391;SDS011;76123;53.584;9.978;2024-01-30T09:42:33;16.92;;;9.02;;
56391;SDS011;76123;53.584;9.978;2024-01-30T09:45:01;15.18;;;8.98;;
56391;SDS011;76123;53.584;9.978;2024-01-30T09:47:29;19.13;;;10.57;;
56391;SDS011;76123;53.584;9.978;2024-01-30T09:49:57;16.98;;;10.15;;
56391;SDS011;76123;53.584;9.978;2024-01-30T09:52:24;18.67;;;10.68;;
56391;SDS011;76123;53.584;9.978;2024-01-30T09:54:51;17.08;;;9.88;;
56391;SDS011;76123;53.584;9.978;2024-01-30T09:57:19;20.42;;;10.52;;
56391;SDS011;76123;53.584;9.978;2024-01-30T09:59:46;19.10;;;9.88;;
56391;SDS011;76123;53.584;9.978;2024-01-30T10:02:12;22.10;;;10.15;;
56391;SDS011;76123;53.584;9.978;2024-01-30T10:04:40;17.35;;;10.18;;
56391;SDS011;76123;53.584;9.978;2024-01-30T10:07:07;17.20;;;10.15;;
56391;SDS011;76123;53.584;9.978;2024-01-30T10:09:36;17.35;;;9.80;;
56391;SDS011;76123;53.584;9.978;2024-01-30T10:12:03;21.50;;;10.10;;
56391;SDS011;76123;53.584;9.978;2024-01-30T10:14:31;17.80;;;9.45;;
56391;SDS011;76123;53.584;9.978;2024-01-30T10:16:58;17.65;;;9.77;;
56391;SDS011;76123;53.584;9.978;2024-01-30T10:19:25;17.33;;;9.45;;
56391;SDS011;76123;53.584;9.978;2024-01-30T10:21:53;14.65;;;9.07;;
56391;SDS011;76123;53.584;9.978;2024-01-30T10:24:23;17.42;;;10.20;;
56391;SDS011;76123;53.584;9.978;2024-01-30T10:26:50;16.08;;;10.13;;
56391;SDS011;76123;53.584;9.978;2024-01-30T10:29:17;16.88;;;9.90;;
56391;SDS011;76123;53.584;9.978;2024-01-30T10:31:43;20.75;;;10.25;;
56391;SDS011;76123;53.584;9.978;2024-01-30T10:34:10;21.30;;;10.88;;
56391;SDS011;76123;53.584;9.978;2024-01-30T10:36:40;17.48;;;10.05;;
56391;SDS011;76123;53.584;9.978;2024-01-30T10:39:08;19.58;;;9.68;;
56391;SDS011;76123;53.584;9.978;2024-01-30T10:41:37;16.48;;;10.20;;
56391;SDS011;76123;53.584;9.978;2024-01-30T10:44:09;21.73;;;10.70;;
56391;SDS011;76123;53.584;9.978;2024-01-30T10:46:37;20.10;;;10.50;;
56391;SDS011;76123;53.584;9.978;2024-01-30T10:49:05;17.10;;;9.82;;
56391;SDS011;76123;53.584;9.978;2024-01-30T10:51:32;18.38;;;9.90;;
56391;SDS011;76123;53.584;9.978;2024-01-30T10:54:00;19.58;;;10.10;;
56391;SDS011;76123;53.584;9.978;2024-01-30T10:56:30;17.52;;;10.30;;
56391;SDS011;76123;53.584;9.978;2024-01-30T10:58:59;18.88;;;10.43;;
56391;SDS011;76123;53.584;9.978;2024-01-30T11:01:26;18.67;;;10.63;;
56391;SDS011;76123;53.584;9.978;2024-01-30T11:04:03;18.58;;;9.50;;
56391;SDS011;76123;53.584;9.978;2024-01-30T11:06:33;18.00;;;9.77;;
56391;SDS011;76123;53.584;9.978;2024-01-30T11:09:10;16.10;;;9.82;;
56391;SDS011;76123;53.584;9.978;2024-01-30T11:11:52;19.23;;;9.98;;
56391;SDS011;76123;53.584;9.978;2024-01-30T11:14:25;22.50;;;9.30;;
56391;SDS011;76123;53.584;9.978;2024-01-30T11:16:52;15.65;;;9.60;;
56391;SDS011;76123;53.584;9.978;2024-01-30T11:19:25;18.55;;;10.35;;
56391;SDS011;76123;53.584;9.978;2024-01-30T11:21:52;18.77;;;9.77;;
56391;SDS011;76123;53.584;9.978;2024-01-30T11:24:19;19.67;;;9.73;;
56391;SDS011;76123;53.584;9.978;2024-01-30T11:26:48;16.35;;;9.60;;
56391;SDS011;76123;53.584;9.978;2024-01-30T11:29:17;16.27;;;9.45;;
56391;SDS011;76123;53.584;9.978;2024-01-30T11:31:53;17.67;;;10.10;;
56391;SDS011;76123;53.584;9.978;2024-01-30T11:34:20;18.05;;;9.55;;
56391;SDS011;76123;53.584;9.978;2024-01-30T11:36:48;19.40;;;9.50;;
56391;SDS011;76123;53.584;9.978;2024-01-30T11:39:20;20.13;;;9.77;;
56391;SDS011;76123;53.584;9.978;2024-01-30T11:41:47;19.45;;;10.00;;
56391;SDS011;76123;53.584;9.978;2024-01-30T11:44:18;17.77;;;10.13;;
56391;SDS011;76123;53.584;9.978;2024-01-30T11:46:46;15.05;;;9.90;;
56391;SDS011;76123;53.584;9.978;2024-01-30T11:49:13;21.67;;;10.35;;
56391;SDS011;76123;53.584;9.978;2024-01-30T11:51:39;15.43;;;9.48;;
56391;SDS011;76123;53.584;9.978;2024-01-30T11:54:07;20.92;;;10.93;;
56391;SDS011;76123;53.584;9.978;2024-01-30T11:56:33;19.55;;;10.40;;
56391;SDS011;76123;53.584;9.978;2024-01-30T11:59:00;19.95;;;11.38;;
56391;SDS011;76123;53.584;9.978;2024-01-30T12:01:28;16.10;;;9.88;;
56391;SDS011;76123;53.584;9.978;2024-01-30T12:03:55;20.35;;;10.25;;
56391;SDS011;76123;53.584;9.978;2024-01-30T12:06:23;19.98;;;10.68;;
56391;SDS011;76123;53.584;9.978;2024-01-30T12:08:56;17.52;;;9.80;;
56391;SDS011;76123;53.584;9.978;2024-01-30T12:11:24;16.67;;;9.68;;
56391;SDS011;76123;53.584;9.978;2024-01-30T12:13:50;21.02;;;10.48;;
56391;SDS011;76123;53.584;9.978;2024-01-30T12:16:18;19.80;;;10.35;;
56391;SDS011;76123;53.584;9.978;2024-01-30T12:18:46;21.45;;;9.82;;
56391;SDS011;76123;53.584;9.978;2024-01-30T12:21:15;17.85;;;9.88;;
56391;SDS011;76123;53.584;9.978;2024-01-30T12:23:42;17.23;;;10.30;;
56391;SDS011;76123;53.584;9.978;2024-01-30T12:26:10;16.05;;;9.25;;
56391;SDS011;76123;53.584;9.978;2024-01-30T12:28:46;15.55;;;8.55;;
56391;SDS011;76123;53.584;9.978;2024-01-30T12:31:13;13.88;;;8.40;;
56391;SDS011;76123;53.584;9.978;2024-01-30T12:33:40;15.30;;;8.93;;
56391;SDS011;76123;53.584;9.978;2024-01-30T12:36:08;14.63;;;8.90;;
56391;SDS011;76123;53.584;9.978;2024-01-30T12:38:35;14.77;;;8.35;;
56391;SDS011;76123;53.584;9.978;2024-01-30T12:41:02;13.25;;;8.30;;
56391;SDS011;76123;53.584;9.978;2024-01-30T12:43:29;15.10;;;8.73;;
56391;SDS011;76123;53.584;9.978;2024-01-30T12:45:56;15.93;;;8.65;;
56391;SDS011;76123;53.584;9.978;2024-01-30T12:48:23;15.85;;;8.75;;
56391;SDS011;76123;53.584;9.978;2024-01-30T12:50:52;17.30;;;8.13;;
56391;SDS011;76123;53.584;9.978;2024-01-30T12:53:20;15.20;;;8.43;;
56391;SDS011;76123;53.584;9.978;2024-01-30T12:55:47;17.73;;;8.95;;
56391;SDS011;76123;53.584;9.978;2024-01-30T12:58:14;15.05;;;8.30;;
56391;SDS011;76123;53.584;9.978;2024-01-30T13:00:41;15.07;;;8.32;;
56391;SDS011;76123;53.584;9.978;2024-01-30T13:03:08;15.90;;;8.70;;
56391;SDS011;76123;53.584;9.978;2024-01-30T13:05:35;17.02;;;8.75;;
56391;SDS011;76123;53.584;9.978;2024-01-30T13:08:02;14.95;;;8.38;;
56391;SDS011;76123;53.584;9.978;2024-01-30T13:10:30;17.10;;;8.75;;
56391;SDS011;76123;53.584;9.978;2024-01-30T13:12:57;19.83;;;8.85;;
56391;SDS011;76123;53.584;9.978;2024-01-30T13:15:23;16.55;;;8.50;;
56391;SDS011;76123;53.584;9.978;2024-01-30T13:17:50;15.88;;;8.15;;
56391;SDS011;76123;53.584;9.978;2024-01-30T13:20:19;14.80;;;8.73;;
56391;SDS011;76123;53.584;9.978;2024-01-30T13:22:47;15.70;;;8.32;;
56391;SDS011;76123;53.584;9.978;2024-01-30T13:25:13;17.13;;;8.85;;
56391;SDS011;76123;53.584;9.978;2024-01-30T13:27:41;14.18;;;8.32;;
56391;SDS011;76123;53.584;9.978;2024-01-30T13:30:08;14.00;;;8.48;;
56391;SDS011;76123;53.584;9.978;2024-01-30T13:32:35;17.58;;;8.50;;
56391;SDS011;76123;53.584;9.978;2024-01-30T13:35:02;14.68;;;8.52;;
56391;SDS011;76123;53.584;9.978;2024-01-30T13:37:29;16.45;;;8.45;;
56391;SDS011;76123;53.584;9.978;2024-01-30T13:39:56;14.75;;;8.82;;
56391;SDS011;76123;53.584;9.978;2024-01-30T13:42:22;17.15;;;8.73;;
56391;SDS011;76123;53.584;9.978;2024-01-30T13:44:50;20.33;;;9.55;;
56391;SDS011;76123;53.584;9.978;2024-01-30T13:47:18;15.93;;;8.90;;
56391;SDS011;76123;53.584;9.978;2024-01-30T13:49:46;15.10;;;9.00;;
56391;SDS011;76123;53.584;9.978;2024-01-30T13:52:13;15.88;;;9.00;;
56391;SDS011;76123;53.584;9.978;2024-01-30T13:54:40;17.20;;;9.13;;
56391;SDS011;76123;53.584;9.978;2024-01-30T13:57:06;16.77;;;9.38;;
56391;SDS011;76123;53.584;9.978;2024-01-30T13:59:33;15.48;;;8.80;;
56391;SDS011;76123;53.584;9.978;2024-01-30T14:02:01;17.33;;;8.95;;
56391;SDS011;76123;53.584;9.978;2024-01-30T14:04:28;19.35;;;9.35;;
56391;SDS011;76123;53.584;9.978;2024-01-30T14:06:55;15.38;;;8.35;;
56391;SDS011;76123;53.584;9.978;2024-01-30T14:09:21;17.05;;;8.90;;
56391;SDS011;76123;53.584;9.978;2024-01-30T14:11:48;18.30;;;9.40;;
56391;SDS011;76123;53.584;9.978;2024-01-30T14:14:14;17.92;;;9.10;;
56391;SDS011;76123;53.584;9.978;2024-01-30T14:16:41;15.38;;;8.07;;
56391;SDS011;76123;53.584;9.978;2024-01-30T14:19:09;14.85;;;8.85;;
56391;SDS011;76123;53.584;9.978;2024-01-30T14:21:35;16.55;;;8.80;;
56391;SDS011;76123;53.584;9.978;2024-01-30T14:24:03;16.95;;;8.80;;
56391;SDS011;76123;53.584;9.978;2024-01-30T14:26:30;16.83;;;8.90;;
56391;SDS011;76123;53.584;9.978;2024-01-30T14:28:57;19.65;;;10.27;;
56391;SDS011;76123;53.584;9.978;2024-01-30T14:31:23;16.40;;;8.82;;
56391;SDS011;76123;53.584;9.978;2024-01-30T14:33:50;15.70;;;8.70;;
56391;SDS011;76123;53.584;9.978;2024-01-30T14:36:18;18.73;;;8.75;;